sensor_id;sensor_type;location;lat;lon;timestamp;pressure;altitude;pressure_sealevel;temperature;humidity
59110;BME280;44895;47.438;18.978;2022-11-03T00:01:16;100841.78;;;10.96;100.00
59110;BME280;44895;47.438;18.978;2022-11-03T00:04:21;100844.06;;;10.73;100.00
59110;BME280;44895;47.438;18.978;2022-11-03T00:07:25;100840.59;;;11.22;100.00
59110;BME280;44895;47.438;18.978;2022-11-03T00:10:29;100838.88;;;11.37;100.00
59110;BME280;44895;47.438;18.978;2022-11-03T00:13:34;100839.44;;;11.39;100.00
59110;BME280;44895;47.438;18.978;2022-11-03T00:16:38;100837.09;;;11.17;100.00
59110;BME280;44895;47.438;18.978;2022-11-03T00:19:42;100821.09;;;11.10;100.00
59110;BME280;44895;47.438;18.978;2022-11-03T00:22:46;100824.91;;;11.04;100.00
59110;BME280;44895;47.438;18.978;2022-11-03T00:25:49;100832.25;;;11.08;100.00
59110;BME280;44895;47.438;18.978;2022-11-03T00:28:55;100831.16;;;11.04;100.00
59110;BME280;44895;47.438;18.978;2022-11-03T00:32:00;100833.41;;;10.92;100.00
59110;BME280;44895;47.438;18.978;2022-11-03T00:35:03;100827.22;;;10.71;100.00
59110;BME280;44895;47.438;18.978;2022-11-03T00:38:07;100829.69;;;10.62;100.00
59110;BME280;44895;47.438;18.978;2022-11-03T00:41:12;100839.47;;;10.58;100.00
59110;BME280;44895;47.438;18.978;2022-11-03T00:44:16;100826.72;;;10.27;100.00
59110;BME280;44895;47.438;18.978;2022-11-03T00:47:20;100822.94;;;10.03;100.00
59110;BME280;44895;47.438;18.978;2022-11-03T00:50:23;100842.72;;;9.98;100.00
59110;BME280;44895;47.438;18.978;2022-11-03T00:53:30;100837.31;;;9.88;100.00
59110;BME280;44895;47.438;18.978;2022-11-03T00:56:39;100835.66;;;9.82;100.00
59110;BME280;44895;47.438;18.978;2022-11-03T00:59:43;100842.19;;;10.58;100.00
59110;BME280;44895;47.438;18.978;2022-11-03T01:02:46;100834.53;;;10.75;100.00
59110;BME280;44895;47.438;18.978;2022-11-03T01:05:50;100827.53;;;10.59;100.00
59110;BME280;44895;47.438;18.978;2022-11-03T01:09:12;100825.31;;;10.61;100.00
59110;BME280;44895;47.438;18.978;2022-11-03T01:12:17;100818.28;;;10.50;100.00
59110;BME280;44895;47.438;18.978;2022-11-03T01:15:21;100819.63;;;10.57;100.00
59110;BME280;44895;47.438;18.978;2022-11-03T01:18:25;100812.28;;;10.68;100.00
59110;BME280;44895;47.438;18.978;2022-11-03T01:21:29;100811.75;;;10.56;100.00
59110;BME280;44895;47.438;18.978;2022-11-03T01:24:34;100813.91;;;10.64;100.00
59110;BME280;44895;47.438;18.978;2022-11-03T01:27:37;100805.81;;;10.38;100.00
59110;BME280;44895;47.438;18.978;2022-11-03T01:30:41;100806.88;;;10.27;100.00
59110;BME280;44895;47.438;18.978;2022-11-03T01:33:46;100793.59;;;10.20;100.00
59110;BME280;44895;47.438;18.978;2022-11-03T01:36:51;100793.88;;;9.93;100.00
59110;BME280;44895;47.438;18.978;2022-11-03T01:39:56;100802.03;;;10.08;100.00
59110;BME280;44895;47.438;18.978;2022-11-03T01:43:20;100806.09;;;9.95;100.00
59110;BME280;44895;47.438;18.978;2022-11-03T01:46:27;100803.66;;;9.94;100.00
59110;BME280;44895;47.438;18.978;2022-11-03T01:49:42;100802.88;;;9.83;100.00
59110;BME280;44895;47.438;18.978;2022-11-03T01:52:51;100794.66;;;10.29;100.00
59110;BME280;44895;47.438;18.978;2022-11-03T01:55:56;100793.59;;;10.25;100.00
59110;BME280;44895;47.438;18.978;2022-11-03T01:59:02;100795.38;;;10.82;100.00
59110;BME280;44895;47.438;18.978;2022-11-03T02:02:05;100796.06;;;11.93;100.00
59110;BME280;44895;47.438;18.978;2022-11-03T02:05:10;100802.69;;;11.41;100.00
59110;BME280;44895;47.438;18.978;2022-11-03T02:08:22;100791.53;;;11.78;100.00
59110;BME280;44895;47.438;18.978;2022-11-03T02:11:28;100802.59;;;11.97;100.00
59110;BME280;44895;47.438;18.978;2022-11-03T02:15:05;100787.03;;;12.02;100.00
59110;BME280;44895;47.438;18.978;2022-11-03T02:18:10;100802.44;;;11.78;100.00
59110;BME280;44895;47.438;18.978;2022-11-03T02:21:26;100802.88;;;11.90;100.00
59110;BME280;44895;47.438;18.978;2022-11-03T02:27:58;100792.97;;;12.04;100.00
59110;BME280;44895;47.438;18.978;2022-11-03T02:34:22;100802.44;;;11.78;100.00
59110;BME280;44895;47.438;18.978;2022-11-03T02:37:35;100802.56;;;11.62;100.00
59110;BME280;44895;47.438;18.978;2022-11-03T02:40:47;100787.50;;;11.35;100.00
59110;BME280;44895;47.438;18.978;2022-11-03T02:43:54;100783.31;;;11.08;100.00
59110;BME280;44895;47.438;18.978;2022-11-03T02:47:00;100798.44;;;11.25;100.00
59110;BME280;44895;47.438;18.978;2022-11-03T02:50:07;100800.78;;;10.92;100.00
59110;BME280;44895;47.438;18.978;2022-11-03T02:53:13;100801.59;;;10.87;100.00
59110;BME280;44895;47.438;18.978;2022-11-03T02:56:19;100806.63;;;10.44;100.00
59110;BME280;44895;47.438;18.978;2022-11-03T02:59:29;100806.91;;;10.48;100.00
59110;BME280;44895;47.438;18.978;2022-11-03T03:02:39;100794.97;;;10.38;100.00
59110;BME280;44895;47.438;18.978;2022-11-03T03:05:46;100794.16;;;9.86;100.00
59110;BME280;44895;47.438;18.978;2022-11-03T03:08:58;100783.03;;;9.93;100.00
59110;BME280;44895;47.438;18.978;2022-11-03T03:12:03;100790.66;;;9.81;100.00
59110;BME280;44895;47.438;18.978;2022-11-03T03:15:08;100781.59;;;9.23;100.00
59110;BME280;44895;47.438;18.978;2022-11-03T03:21:30;100793.22;;;9.03;100.00
59110;BME280;44895;47.438;18.978;2022-11-03T03:24:40;100789.91;;;8.86;100.00
59110;BME280;44895;47.438;18.978;2022-11-03T03:27:50;100787.66;;;8.72;100.00
59110;BME280;44895;47.438;18.978;2022-11-03T03:30:58;100788.16;;;8.59;100.00
59110;BME280;44895;47.438;18.978;2022-11-03T03:34:03;100782.28;;;8.35;100.00
59110;BME280;44895;47.438;18.978;2022-11-03T03:37:07;100793.38;;;8.33;100.00
59110;BME280;44895;47.438;18.978;2022-11-03T03:40:18;100789.00;;;8.27;100.00
59110;BME280;44895;47.438;18.978;2022-11-03T03:43:25;100781.78;;;8.38;100.00
59110;BME280;44895;47.438;18.978;2022-11-03T03:46:35;100792.53;;;8.22;100.00
59110;BME280;44895;47.438;18.978;2022-11-03T03:49:39;100797.66;;;8.24;100.00
59110;BME280;44895;47.438;18.978;2022-11-03T03:52:43;100793.00;;;7.81;100.00
59110;BME280;44895;47.438;18.978;2022-11-03T03:55:50;100794.56;;;7.72;100.00
59110;BME280;44895;47.438;18.978;2022-11-03T03:58:54;100806.97;;;7.68;100.00
59110;BME280;44895;47.438;18.978;2022-11-03T04:01:58;100818.84;;;7.40;100.00
59110;BME280;44895;47.438;18.978;2022-11-03T04:05:02;100811.19;;;7.31;100.00
59110;BME280;44895;47.438;18.978;2022-11-03T04:08:05;100807.38;;;7.55;100.00
59110;BME280;44895;47.438;18.978;2022-11-03T04:11:09;100808.69;;;7.79;100.00
59110;BME280;44895;47.438;18.978;2022-11-03T04:14:31;100811.53;;;7.67;100.00
59110;BME280;44895;47.438;18.978;2022-11-03T04:17:54;100807.97;;;7.34;100.00
59110;BME280;44895;47.438;18.978;2022-11-03T04:21:16;100793.50;;;7.46;100.00
59110;BME280;44895;47.438;18.978;2022-11-03T04:24:38;100814.00;;;7.14;100.00
59110;BME280;44895;47.438;18.978;2022-11-03T04:27:42;100809.53;;;7.03;100.00
59110;BME280;44895;47.438;18.978;2022-11-03T04:30:47;100803.03;;;7.04;100.00
59110;BME280;44895;47.438;18.978;2022-11-03T04:33:51;100799.31;;;7.32;100.00
59110;BME280;44895;47.438;18.978;2022-11-03T04:36:55;100791.88;;;7.17;100.00
59110;BME280;44895;47.438;18.978;2022-11-03T04:39:58;100795.47;;;7.01;100.00
59110;BME280;44895;47.438;18.978;2022-11-03T04:43:04;100796.47;;;6.73;100.00
59110;BME280;44895;47.438;18.978;2022-11-03T04:46:15;100803.47;;;6.74;100.00
59110;BME280;44895;47.438;18.978;2022-11-03T04:49:22;100810.00;;;6.56;100.00
59110;BME280;44895;47.438;18.978;2022-11-03T04:52:26;100796.50;;;6.33;100.00
59110;BME280;44895;47.438;18.978;2022-11-03T04:55:31;100806.56;;;6.60;100.00
59110;BME280;44895;47.438;18.978;2022-11-03T04:58:35;100808.16;;;6.39;100.00
59110;BME280;44895;47.438;18.978;2022-11-03T05:01:39;100805.91;;;6.53;100.00
59110;BME280;44895;47.438;18.978;2022-11-03T05:04:43;100806.19;;;6.74;100.00
59110;BME280;44895;47.438;18.978;2022-11-03T05:07:50;100808.34;;;6.72;100.00
59110;BME280;44895;47.438;18.978;2022-11-03T05:10:54;100809.53;;;6.59;100.00
59110;BME280;44895;47.438;18.978;2022-11-03T05:14:03;100813.91;;;6.65;100.00
59110;BME280;44895;47.438;18.978;2022-11-03T05:17:23;100814.91;;;6.59;100.00
59110;BME280;44895;47.438;18.978;2022-11-03T05:23:38;100814.47;;;6.67;100.00
59110;BME280;44895;47.438;18.978;2022-11-03T05:26:42;100820.06;;;6.82;100.00
59110;BME280;44895;47.438;18.978;2022-11-03T05:29:47;100817.69;;;6.86;100.00
59110;BME280;44895;47.438;18.978;2022-11-03T05:32:52;100819.47;;;6.75;100.00
59110;BME280;44895;47.438;18.978;2022-11-03T05:35:58;100823.44;;;6.50;100.00
59110;BME280;44895;47.438;18.978;2022-11-03T05:42:38;100819.81;;;6.84;100.00
59110;BME280;44895;47.438;18.978;2022-11-03T05:45:45;100825.47;;;6.82;100.00
59110;BME280;44895;47.438;18.978;2022-11-03T05:48:50;100843.59;;;6.65;100.00
59110;BME280;44895;47.438;18.978;2022-11-03T05:51:53;100839.28;;;6.86;100.00
59110;BME280;44895;47.438;18.978;2022-11-03T05:54:58;100835.47;;;7.26;100.00
59110;BME280;44895;47.438;18.978;2022-11-03T06:01:30;100837.78;;;8.37;100.00
59110;BME280;44895;47.438;18.978;2022-11-03T06:04:36;100840.47;;;8.70;100.00
59110;BME280;44895;47.438;18.978;2022-11-03T06:07:42;100837.50;;;8.71;100.00
59110;BME280;44895;47.438;18.978;2022-11-03T06:10:48;100842.97;;;8.81;100.00
59110;BME280;44895;47.438;18.978;2022-11-03T06:13:55;100847.16;;;9.05;100.00
59110;BME280;44895;47.438;18.978;2022-11-03T06:17:03;100848.06;;;9.31;100.00
59110;BME280;44895;47.438;18.978;2022-11-03T06:20:15;100848.09;;;9.41;100.00
59110;BME280;44895;47.438;18.978;2022-11-03T06:23:22;100852.16;;;9.44;100.00
59110;BME280;44895;47.438;18.978;2022-11-03T06:26:26;100858.97;;;9.62;100.00
59110;BME280;44895;47.438;18.978;2022-11-03T06:29:32;100867.09;;;9.46;100.00
59110;BME280;44895;47.438;18.978;2022-11-03T06:32:36;100863.63;;;9.72;100.00
59110;BME280;44895;47.438;18.978;2022-11-03T06:35:39;100869.84;;;9.67;100.00
59110;BME280;44895;47.438;18.978;2022-11-03T06:38:51;100868.78;;;9.78;100.00
59110;BME280;44895;47.438;18.978;2022-11-03T06:41:57;100878.00;;;9.93;100.00
59110;BME280;44895;47.438;18.978;2022-11-03T06:45:11;100876.91;;;9.89;100.00
59110;BME280;44895;47.438;18.978;2022-11-03T06:48:21;100879.91;;;9.72;100.00
59110;BME280;44895;47.438;18.978;2022-11-03T06:51:26;100874.78;;;10.11;100.00
59110;BME280;44895;47.438;18.978;2022-11-03T06:54:30;100878.34;;;10.38;100.00
59110;BME280;44895;47.438;18.978;2022-11-03T06:57:37;100877.75;;;10.15;100.00
59110;BME280;44895;47.438;18.978;2022-11-03T07:00:41;100877.22;;;10.54;100.00
59110;BME280;44895;47.438;18.978;2022-11-03T07:03:48;100879.13;;;10.38;100.00
59110;BME280;44895;47.438;18.978;2022-11-03T07:06:55;100880.75;;;10.34;100.00
59110;BME280;44895;47.438;18.978;2022-11-03T07:10:02;100888.34;;;10.27;100.00
59110;BME280;44895;47.438;18.978;2022-11-03T07:13:12;100887.25;;;10.12;100.00
59110;BME280;44895;47.438;18.978;2022-11-03T07:19:29;100874.78;;;10.53;100.00
59110;BME280;44895;47.438;18.978;2022-11-03T07:22:33;100886.16;;;10.60;100.00
59110;BME280;44895;47.438;18.978;2022-11-03T07:25:36;100885.28;;;10.90;100.00
59110;BME280;44895;47.438;18.978;2022-11-03T07:28:40;100883.59;;;11.10;100.00
59110;BME280;44895;47.438;18.978;2022-11-03T07:31:44;100893.88;;;11.29;100.00
59110;BME280;44895;47.438;18.978;2022-11-03T07:34:49;100900.34;;;11.38;100.00
59110;BME280;44895;47.438;18.978;2022-11-03T07:37:56;100893.88;;;11.23;100.00
59110;BME280;44895;47.438;18.978;2022-11-03T07:41:01;100884.97;;;11.13;100.00
59110;BME280;44895;47.438;18.978;2022-11-03T07:44:12;100892.59;;;11.00;100.00
59110;BME280;44895;47.438;18.978;2022-11-03T07:47:19;100887.09;;;11.16;100.00
59110;BME280;44895;47.438;18.978;2022-11-03T07:50:24;100882.78;;;11.09;100.00
59110;BME280;44895;47.438;18.978;2022-11-03T07:53:38;100882.56;;;10.90;100.00
59110;BME280;44895;47.438;18.978;2022-11-03T07:56:47;100874.63;;;11.04;100.00
59110;BME280;44895;47.438;18.978;2022-11-03T07:59:56;100878.78;;;10.86;100.00
59110;BME280;44895;47.438;18.978;2022-11-03T08:03:01;100873.31;;;10.97;100.00
59110;BME280;44895;47.438;18.978;2022-11-03T08:06:04;100879.38;;;10.78;100.00
59110;BME280;44895;47.438;18.978;2022-11-03T08:09:08;100877.44;;;10.79;100.00
59110;BME280;44895;47.438;18.978;2022-11-03T08:12:12;100871.41;;;11.02;100.00
59110;BME280;44895;47.438;18.978;2022-11-03T08:15:15;100870.56;;;11.02;100.00
59110;BME280;44895;47.438;18.978;2022-11-03T08:18:19;100867.78;;;11.22;100.00
59110;BME280;44895;47.438;18.978;2022-11-03T08:21:23;100866.78;;;10.98;100.00
59110;BME280;44895;47.438;18.978;2022-11-03T08:24:27;100854.53;;;11.00;100.00
59110;BME280;44895;47.438;18.978;2022-11-03T08:27:31;100868.88;;;11.21;100.00
59110;BME280;44895;47.438;18.978;2022-11-03T08:30:34;100859.22;;;10.84;100.00
59110;BME280;44895;47.438;18.978;2022-11-03T08:33:38;100861.88;;;11.05;100.00
59110;BME280;44895;47.438;18.978;2022-11-03T08:36:42;100862.91;;;11.19;100.00
59110;BME280;44895;47.438;18.978;2022-11-03T08:39:47;100859.88;;;11.26;100.00
59110;BME280;44895;47.438;18.978;2022-11-03T08:42:50;100854.78;;;11.09;100.00
59110;BME280;44895;47.438;18.978;2022-11-03T08:45:54;100847.47;;;11.04;100.00
59110;BME280;44895;47.438;18.978;2022-11-03T08:48:58;100861.06;;;11.04;100.00
59110;BME280;44895;47.438;18.978;2022-11-03T08:52:02;100851.22;;;11.19;100.00
59110;BME280;44895;47.438;18.978;2022-11-03T08:55:06;100844.66;;;11.30;100.00
59110;BME280;44895;47.438;18.978;2022-11-03T08:58:10;100850.47;;;11.03;100.00
59110;BME280;44895;47.438;18.978;2022-11-03T09:01:13;100844.72;;;11.15;100.00
59110;BME280;44895;47.438;18.978;2022-11-03T09:04:17;100843.28;;;11.33;100.00
59110;BME280;44895;47.438;18.978;2022-11-03T09:07:21;100845.66;;;11.39;100.00
59110;BME280;44895;47.438;18.978;2022-11-03T09:10:25;100843.81;;;11.30;100.00
59110;BME280;44895;47.438;18.978;2022-11-03T09:13:29;100846.06;;;11.12;100.00
59110;BME280;44895;47.438;18.978;2022-11-03T09:16:33;100835.97;;;11.23;100.00
59110;BME280;44895;47.438;18.978;2022-11-03T09:19:36;100840.91;;;11.10;100.00
59110;BME280;44895;47.438;18.978;2022-11-03T09:22:40;100839.28;;;11.09;100.00
59110;BME280;44895;47.438;18.978;2022-11-03T09:25:44;100836.50;;;11.30;100.00
59110;BME280;44895;47.438;18.978;2022-11-03T09:28:48;100836.03;;;11.13;100.00
59110;BME280;44895;47.438;18.978;2022-11-03T09:31:52;100833.50;;;11.26;100.00
59110;BME280;44895;47.438;18.978;2022-11-03T09:34:55;100837.38;;;11.15;100.00
59110;BME280;44895;47.438;18.978;2022-11-03T09:37:59;100824.59;;;11.10;100.00
59110;BME280;44895;47.438;18.978;2022-11-03T09:41:04;100823.19;;;11.18;100.00
59110;BME280;44895;47.438;18.978;2022-11-03T09:44:08;100823.41;;;11.32;100.00
59110;BME280;44895;47.438;18.978;2022-11-03T09:47:21;100817.38;;;11.40;100.00
59110;BME280;44895;47.438;18.978;2022-11-03T09:50:25;100806.13;;;11.57;100.00
59110;BME280;44895;47.438;18.978;2022-11-03T09:53:29;100804.09;;;11.73;100.00
59110;BME280;44895;47.438;18.978;2022-11-03T09:56:35;100806.03;;;11.28;100.00
59110;BME280;44895;47.438;18.978;2022-11-03T09:59:42;100803.41;;;11.57;100.00
59110;BME280;44895;47.438;18.978;2022-11-03T10:02:47;100796.06;;;11.58;100.00
59110;BME280;44895;47.438;18.978;2022-11-03T10:05:51;100786.94;;;11.38;100.00
59110;BME280;44895;47.438;18.978;2022-11-03T10:08:55;100794.59;;;11.26;100.00
59110;BME280;44895;47.438;18.978;2022-11-03T10:11:59;100786.00;;;11.14;100.00
59110;BME280;44895;47.438;18.978;2022-11-03T10:15:03;100779.94;;;11.27;100.00
59110;BME280;44895;47.438;18.978;2022-11-03T10:18:08;100789.84;;;11.07;100.00
59110;BME280;44895;47.438;18.978;2022-11-03T10:24:19;100776.31;;;10.92;100.00
59110;BME280;44895;47.438;18.978;2022-11-03T10:27:24;100764.78;;;11.10;100.00
59110;BME280;44895;47.438;18.978;2022-11-03T10:30:28;100769.72;;;11.08;100.00
59110;BME280;44895;47.438;18.978;2022-11-03T10:33:34;100758.38;;;10.91;100.00
59110;BME280;44895;47.438;18.978;2022-11-03T10:36:37;100752.31;;;11.04;100.00
59110;BME280;44895;47.438;18.978;2022-11-03T10:39:42;100750.91;;;11.12;100.00
59110;BME280;44895;47.438;18.978;2022-11-03T10:42:57;100743.66;;;11.02;100.00
59110;BME280;44895;47.438;18.978;2022-11-03T10:46:27;100734.56;;;11.22;100.00
59110;BME280;44895;47.438;18.978;2022-11-03T10:49:32;100733.28;;;11.04;100.00
59110;BME280;44895;47.438;18.978;2022-11-03T10:52:38;100725.16;;;10.99;100.00
59110;BME280;44895;47.438;18.978;2022-11-03T10:55:42;100719.47;;;11.01;100.00
59110;BME280;44895;47.438;18.978;2022-11-03T10:58:46;100715.94;;;11.00;100.00
59110;BME280;44895;47.438;18.978;2022-11-03T11:01:50;100720.22;;;11.12;100.00
59110;BME280;44895;47.438;18.978;2022-11-03T11:04:57;100718.69;;;10.95;100.00
59110;BME280;44895;47.438;18.978;2022-11-03T11:08:01;100705.91;;;10.96;100.00
59110;BME280;44895;47.438;18.978;2022-11-03T11:11:05;100705.31;;;11.04;100.00
59110;BME280;44895;47.438;18.978;2022-11-03T11:20:44;100696.22;;;10.74;100.00
59110;BME280;44895;47.438;18.978;2022-11-03T11:23:48;100691.66;;;10.69;100.00
59110;BME280;44895;47.438;18.978;2022-11-03T11:26:54;100685.94;;;10.71;100.00
59110;BME280;44895;47.438;18.978;2022-11-03T11:29:59;100686.00;;;10.60;100.00
59110;BME280;44895;47.438;18.978;2022-11-03T11:33:20;100680.28;;;10.62;100.00
59110;BME280;44895;47.438;18.978;2022-11-03T11:36:25;100671.59;;;10.55;100.00
59110;BME280;44895;47.438;18.978;2022-11-03T11:42:33;100653.09;;;10.67;100.00
59110;BME280;44895;47.438;18.978;2022-11-03T11:49:18;100646.28;;;10.70;100.00
59110;BME280;44895;47.438;18.978;2022-11-03T11:52:23;100650.19;;;10.93;100.00
59110;BME280;44895;47.438;18.978;2022-11-03T11:58:46;100631.25;;;11.22;100.00
59110;BME280;44895;47.438;18.978;2022-11-03T12:01:52;100625.41;;;11.05;100.00
59110;BME280;44895;47.438;18.978;2022-11-03T12:04:59;100613.06;;;11.18;100.00
59110;BME280;44895;47.438;18.978;2022-11-03T12:08:16;100612.09;;;11.03;100.00
59110;BME280;44895;47.438;18.978;2022-11-03T12:12:13;100607.22;;;11.00;100.00
59110;BME280;44895;47.438;18.978;2022-11-03T12:15:47;100605.00;;;11.07;100.00
59110;BME280;44895;47.438;18.978;2022-11-03T12:18:51;100599.72;;;11.21;100.00
59110;BME280;44895;47.438;18.978;2022-11-03T12:21:55;100593.59;;;11.05;100.00
59110;BME280;44895;47.438;18.978;2022-11-03T12:25:03;100600.78;;;10.91;100.00
59110;BME280;44895;47.438;18.978;2022-11-03T12:28:09;100589.81;;;11.01;100.00
59110;BME280;44895;47.438;18.978;2022-11-03T12:31:12;100585.38;;;11.10;100.00
59110;BME280;44895;47.438;18.978;2022-11-03T12:34:16;100581.41;;;10.98;100.00
59110;BME280;44895;47.438;18.978;2022-11-03T12:37:21;100582.72;;;11.35;100.00
59110;BME280;44895;47.438;18.978;2022-11-03T12:40:25;100574.00;;;11.38;100.00
59110;BME280;44895;47.438;18.978;2022-11-03T12:43:29;100568.22;;;11.45;100.00
59110;BME280;44895;47.438;18.978;2022-11-03T12:46:33;100575.72;;;11.29;100.00
59110;BME280;44895;47.438;18.978;2022-11-03T12:49:36;100566.03;;;11.17;100.00
59110;BME280;44895;47.438;18.978;2022-11-03T12:52:40;100563.09;;;11.14;100.00
59110;BME280;44895;47.438;18.978;2022-11-03T12:55:44;100553.09;;;11.33;100.00
59110;BME280;44895;47.438;18.978;2022-11-03T12:58:47;100560.31;;;11.19;100.00
59110;BME280;44895;47.438;18.978;2022-11-03T13:01:51;100556.47;;;11.25;100.00
59110;BME280;44895;47.438;18.978;2022-11-03T13:04:55;100550.03;;;11.40;100.00
59110;BME280;44895;47.438;18.978;2022-11-03T13:07:59;100553.16;;;11.28;100.00
59110;BME280;44895;47.438;18.978;2022-11-03T13:11:03;100557.78;;;11.28;100.00
59110;BME280;44895;47.438;18.978;2022-11-03T13:14:27;100556.91;;;11.32;100.00
59110;BME280;44895;47.438;18.978;2022-11-03T13:17:30;100551.81;;;11.25;100.00
59110;BME280;44895;47.438;18.978;2022-11-03T13:20:34;100547.63;;;11.09;100.00
59110;BME280;44895;47.438;18.978;2022-11-03T13:23:39;100539.75;;;11.07;100.00
59110;BME280;44895;47.438;18.978;2022-11-03T13:26:43;100525.06;;;11.08;100.00
59110;BME280;44895;47.438;18.978;2022-11-03T13:29:46;100527.34;;;11.25;100.00
59110;BME280;44895;47.438;18.978;2022-11-03T13:32:51;100530.47;;;11.14;100.00
59110;BME280;44895;47.438;18.978;2022-11-03T13:35:54;100527.75;;;11.14;100.00
59110;BME280;44895;47.438;18.978;2022-11-03T13:38:58;100527.00;;;11.03;100.00
59110;BME280;44895;47.438;18.978;2022-11-03T13:42:02;100526.53;;;10.96;100.00
59110;BME280;44895;47.438;18.978;2022-11-03T13:45:06;100515.38;;;10.97;100.00
59110;BME280;44895;47.438;18.978;2022-11-03T13:48:10;100528.28;;;10.81;100.00
59110;BME280;44895;47.438;18.978;2022-11-03T13:51:14;100528.38;;;10.71;100.00
59110;BME280;44895;47.438;18.978;2022-11-03T13:54:20;100530.22;;;10.81;100.00
59110;BME280;44895;47.438;18.978;2022-11-03T13:57:24;100526.94;;;10.79;100.00
59110;BME280;44895;47.438;18.978;2022-11-03T14:00:28;100521.47;;;10.84;100.00
59110;BME280;44895;47.438;18.978;2022-11-03T14:03:32;100522.06;;;10.81;100.00
59110;BME280;44895;47.438;18.978;2022-11-03T14:06:35;100521.31;;;10.70;100.00
59110;BME280;44895;47.438;18.978;2022-11-03T14:09:39;100521.69;;;10.58;100.00
59110;BME280;44895;47.438;18.978;2022-11-03T14:12:43;100521.06;;;10.66;100.00
59110;BME280;44895;47.438;18.978;2022-11-03T14:15:47;100513.53;;;10.58;100.00
59110;BME280;44895;47.438;18.978;2022-11-03T14:18:52;100517.41;;;10.47;100.00
59110;BME280;44895;47.438;18.978;2022-11-03T14:21:55;100514.16;;;10.44;100.00
59110;BME280;44895;47.438;18.978;2022-11-03T14:24:59;100511.31;;;10.60;100.00
59110;BME280;44895;47.438;18.978;2022-11-03T14:28:03;100501.50;;;10.69;100.00
59110;BME280;44895;47.438;18.978;2022-11-03T14:31:07;100502.13;;;10.56;100.00
59110;BME280;44895;47.438;18.978;2022-11-03T14:34:11;100503.84;;;10.47;100.00
59110;BME280;44895;47.438;18.978;2022-11-03T14:37:15;100490.25;;;10.47;100.00
59110;BME280;44895;47.438;18.978;2022-11-03T14:40:18;100495.56;;;10.62;100.00
59110;BME280;44895;47.438;18.978;2022-11-03T14:43:41;100499.16;;;10.52;100.00
59110;BME280;44895;47.438;18.978;2022-11-03T14:46:45;100497.53;;;10.51;100.00
59110;BME280;44895;47.438;18.978;2022-11-03T14:49:48;100493.78;;;10.47;100.00
59110;BME280;44895;47.438;18.978;2022-11-03T14:52:52;100489.13;;;10.53;100.00
59110;BME280;44895;47.438;18.978;2022-11-03T14:55:56;100483.28;;;10.30;100.00
59110;BME280;44895;47.438;18.978;2022-11-03T14:59:00;100484.00;;;10.46;100.00
59110;BME280;44895;47.438;18.978;2022-11-03T15:02:04;100478.78;;;10.55;100.00
59110;BME280;44895;47.438;18.978;2022-11-03T15:05:08;100483.25;;;10.40;100.00
59110;BME280;44895;47.438;18.978;2022-11-03T15:08:31;100480.78;;;10.44;100.00
59110;BME280;44895;47.438;18.978;2022-11-03T15:11:35;100473.56;;;10.24;100.00
59110;BME280;44895;47.438;18.978;2022-11-03T15:14:39;100471.16;;;10.17;100.00
59110;BME280;44895;47.438;18.978;2022-11-03T15:17:43;100473.81;;;9.77;100.00
59110;BME280;44895;47.438;18.978;2022-11-03T15:20:47;100476.78;;;9.76;100.00
59110;BME280;44895;47.438;18.978;2022-11-03T15:23:50;100474.06;;;9.81;100.00
59110;BME280;44895;47.438;18.978;2022-11-03T15:26:54;100467.44;;;9.48;100.00
59110;BME280;44895;47.438;18.978;2022-11-03T15:29:58;100470.63;;;9.55;100.00
59110;BME280;44895;47.438;18.978;2022-11-03T15:33:02;100477.81;;;9.25;100.00
59110;BME280;44895;47.438;18.978;2022-11-03T15:36:06;100484.84;;;9.10;100.00
59110;BME280;44895;47.438;18.978;2022-11-03T15:39:10;100489.19;;;9.17;100.00
59110;BME280;44895;47.438;18.978;2022-11-03T15:42:15;100483.25;;;8.99;100.00
59110;BME280;44895;47.438;18.978;2022-11-03T15:45:20;100470.25;;;8.96;100.00
59110;BME280;44895;47.438;18.978;2022-11-03T15:48:23;100477.81;;;9.09;100.00
59110;BME280;44895;47.438;18.978;2022-11-03T15:51:27;100465.88;;;9.16;100.00
59110;BME280;44895;47.438;18.978;2022-11-03T15:54:31;100468.59;;;9.10;100.00
59110;BME280;44895;47.438;18.978;2022-11-03T15:57:35;100471.06;;;8.96;100.00
59110;BME280;44895;47.438;18.978;2022-11-03T16:00:38;100468.09;;;8.72;100.00
59110;BME280;44895;47.438;18.978;2022-11-03T16:03:43;100468.09;;;8.77;100.00
59110;BME280;44895;47.438;18.978;2022-11-03T16:06:46;100464.59;;;8.72;100.00
59110;BME280;44895;47.438;18.978;2022-11-03T16:09:50;100465.91;;;8.28;100.00
59110;BME280;44895;47.438;18.978;2022-11-03T16:12:54;100456.13;;;8.16;100.00
59110;BME280;44895;47.438;18.978;2022-11-03T16:15:58;100452.94;;;8.40;100.00
59110;BME280;44895;47.438;18.978;2022-11-03T16:19:02;100459.16;;;8.51;100.00
59110;BME280;44895;47.438;18.978;2022-11-03T16:22:05;100452.69;;;8.83;100.00
59110;BME280;44895;47.438;18.978;2022-11-03T16:25:09;100451.59;;;8.58;100.00
59110;BME280;44895;47.438;18.978;2022-11-03T16:28:13;100447.00;;;8.48;100.00
59110;BME280;44895;47.438;18.978;2022-11-03T16:31:17;100442.38;;;8.80;100.00
59110;BME280;44895;47.438;18.978;2022-11-03T16:34:21;100435.56;;;8.98;100.00